Time;durP1;ratioP1;P1;durP2;ratioP2;P2;SDS_P1;SDS_P2;PMS_P1;PMS_P2;Temp;Humidity;BMP_temperature;BMP_pressure;BME280_temperature;BME280_humidity;BME280_pressure;Samples;Min_cycle;Max_cycle;Signal;HPM_P1;HPM_P2
2023/06/17 00:02:20;;;;;;;17.65;14.20;;;14.70;99.90;;;;;;5057629;28;20060;-82
2023/06/17 00:04:46;;;;;;;19.70;14.32;;;14.80;99.90;;;;;;5047258;28;20039;-82
2023/06/17 00:07:12;;;;;;;21.15;15.30;;;14.80;99.90;;;;;;5054882;28;20494;-82
2023/06/17 00:09:41;;;;;;;20.63;14.70;;;14.90;99.90;;;;;;5086546;28;20037;-82
2023/06/17 00:12:07;;;;;;;20.13;15.13;;;14.90;99.90;;;;;;5044231;28;20495;-82
2023/06/17 00:14:33;;;;;;;22.35;16.60;;;15.00;99.90;;;;;;5044722;28;20402;-82
2023/06/17 00:17:00;;;;;;;23.45;16.88;;;15.10;99.90;;;;;;5059552;28;20035;-82
2023/06/17 00:19:27;;;;;;;20.75;16.17;;;15.10;99.90;;;;;;5043054;28;20064;-82
2023/06/17 00:21:53;;;;;;;24.80;15.98;;;15.10;99.90;;;;;;5059175;28;20041;-82
2023/06/17 00:24:20;;;;;;;22.98;16.85;;;15.10;99.90;;;;;;5054895;28;20096;-82
2023/06/17 00:26:46;;;;;;;23.67;16.25;;;15.10;99.90;;;;;;5058834;28;20040;-82
2023/06/17 00:29:12;;;;;;;24.52;15.52;;;15.20;99.90;;;;;;5044890;28;20416;-81
2023/06/17 00:31:38;;;;;;;24.45;15.95;;;15.20;99.90;;;;;;5044033;28;20044;-82
2023/06/17 00:34:04;;;;;;;23.10;15.80;;;15.30;99.90;;;;;;5048748;28;20036;-81
2023/06/17 00:36:29;;;;;;;20.80;16.05;;;15.20;99.90;;;;;;5041552;28;20123;-81
2023/06/17 00:38:55;;;;;;;23.35;15.65;;;15.20;99.90;;;;;;5058094;28;20086;-81
2023/06/17 00:41:21;;;;;;;19.77;14.68;;;15.20;99.90;;;;;;5033988;28;20043;-82
2023/06/17 00:43:47;;;;;;;20.35;15.07;;;15.20;99.90;;;;;;5057496;28;20119;-81
2023/06/17 00:46:37;;;;;;;21.60;15.05;;;15.20;99.90;;;;;;5057878;28;20067;-81
2023/06/17 00:49:04;;;;;;;21.48;15.88;;;15.20;99.90;;;;;;5038909;28;20071;-82
2023/06/17 00:51:32;;;;;;;28.15;16.73;;;15.20;99.90;;;;;;5055231;28;20044;-82
2023/06/17 00:54:02;;;;;;;24.02;17.02;;;15.20;99.90;;;;;;5053896;28;20051;-82
2023/06/17 00:56:33;;;;;;;20.95;16.45;;;15.30;99.90;;;;;;5039867;28;20082;-82
2023/06/17 00:59:02;;;;;;;23.55;16.65;;;15.30;99.90;;;;;;5070516;28;20287;-81
2023/06/17 01:01:29;;;;;;;24.27;16.58;;;15.40;99.90;;;;;;5045377;28;20436;-82
2023/06/17 01:03:56;;;;;;;21.42;16.23;;;15.30;99.90;;;;;;5058420;28;20051;-81
2023/06/17 01:06:33;;;;;;;23.10;16.55;;;15.40;99.90;;;;;;5055727;28;20119;-82
2023/06/17 01:09:11;;;;;;;26.33;17.13;;;15.30;99.90;;;;;;5043935;28;20044;-82
2023/06/17 01:11:38;;;;;;;26.10;16.63;;;15.40;99.90;;;;;;5054170;28;20495;-82
2023/06/17 01:14:08;;;;;;;24.48;17.30;;;15.40;99.90;;;;;;5056564;28;20064;-81
2023/06/17 01:16:35;;;;;;;25.48;18.55;;;15.40;99.90;;;;;;5057315;28;20036;-82
2023/06/17 01:19:02;;;;;;;26.30;19.75;;;15.40;99.90;;;;;;5043167;28;20040;-81
2023/06/17 01:21:31;;;;;;;24.67;18.35;;;15.40;99.90;;;;;;5049478;28;20449;-82
2023/06/17 01:24:00;;;;;;;23.20;17.30;;;15.40;99.90;;;;;;5046291;28;20051;-81
2023/06/17 01:26:28;;;;;;;23.23;17.42;;;15.40;99.90;;;;;;5043359;28;20040;-81
2023/06/17 01:28:59;;;;;;;27.85;19.15;;;15.40;99.90;;;;;;5046710;28;20111;-82
2023/06/17 01:31:26;;;;;;;26.77;18.95;;;15.40;99.90;;;;;;5040407;28;20173;-82
2023/06/17 01:33:56;;;;;;;26.05;20.25;;;15.50;99.90;;;;;;5055434;28;20054;-82
2023/06/17 01:36:29;;;;;;;29.00;20.83;;;15.40;99.90;;;;;;5052302;28;20530;-81
2023/06/17 01:39:05;;;;;;;28.45;20.58;;;15.40;99.90;;;;;;5042646;28;20100;-82
2023/06/17 01:41:39;;;;;;;29.00;20.88;;;15.40;99.90;;;;;;5053652;28;20049;-81
2023/06/17 01:44:06;;;;;;;23.95;20.23;;;15.40;99.90;;;;;;5053115;28;20036;-82
2023/06/17 01:46:32;;;;;;;27.55;20.83;;;15.50;99.90;;;;;;5061874;28;20400;-82
2023/06/17 01:48:58;;;;;;;26.60;20.02;;;15.50;99.90;;;;;;5051754;28;20071;-81
2023/06/17 01:51:24;;;;;;;30.42;21.13;;;15.50;99.90;;;;;;5039897;28;20059;-82
2023/06/17 01:53:50;;;;;;;33.80;21.58;;;15.50;99.90;;;;;;5040867;28;20100;-82
2023/06/17 01:56:16;;;;;;;30.02;22.02;;;15.60;99.90;;;;;;5042297;28;20032;-81
2023/06/17 01:58:42;;;;;;;30.55;22.55;;;15.50;99.90;;;;;;5037815;28;20581;-81
2023/06/17 02:01:10;;;;;;;31.42;23.38;;;15.40;99.90;;;;;;5046105;28;20040;-81
2023/06/17 02:03:37;;;;;;;28.80;21.10;;;15.40;99.90;;;;;;5040103;28;20044;-81
2023/06/17 02:06:02;;;;;;;29.45;22.27;;;15.50;99.90;;;;;;5042483;28;20437;-81
2023/06/17 02:08:28;;;;;;;31.33;22.83;;;15.40;99.90;;;;;;5054914;28;20036;-81
2023/06/17 02:10:54;;;;;;;30.10;22.05;;;15.40;99.90;;;;;;5055050;28;20040;-82
2023/06/17 02:13:19;;;;;;;34.65;22.73;;;15.40;99.90;;;;;;5051820;28;20041;-82
2023/06/17 02:15:45;;;;;;;29.02;23.08;;;15.40;99.90;;;;;;5039914;28;20048;-82
2023/06/17 02:18:14;;;;;;;32.50;23.25;;;15.40;99.90;;;;;;5040425;28;20147;-81
2023/06/17 02:20:39;;;;;;;33.97;24.77;;;15.30;99.90;;;;;;5041989;28;20461;-82
2023/06/17 02:23:05;;;;;;;35.40;23.65;;;15.30;99.90;;;;;;5060240;28;20091;-81
2023/06/17 02:25:31;;;;;;;30.13;23.13;;;15.30;99.90;;;;;;5050911;28;20482;-81
2023/06/17 02:27:56;;;;;;;33.45;23.33;;;15.30;99.90;;;;;;5031531;28;20076;-82
2023/06/17 02:30:22;;;;;;;31.63;24.13;;;15.30;99.90;;;;;;5038106;28;20044;-81
2023/06/17 02:32:48;;;;;;;36.38;24.60;;;15.30;99.90;;;;;;5037250;28;20055;-81
2023/06/17 02:35:13;;;;;;;30.55;22.90;;;15.30;99.90;;;;;;5043723;28;20097;-81
2023/06/17 02:37:40;;;;;;;29.45;23.90;;;15.20;99.90;;;;;;5040471;28;20040;-81
2023/06/17 02:40:08;;;;;;;35.10;25.40;;;15.20;99.90;;;;;;5051768;28;20131;-81
2023/06/17 02:42:35;;;;;;;31.65;24.42;;;15.20;99.90;;;;;;5054410;28;20110;-82
2023/06/17 02:45:01;;;;;;;31.08;24.30;;;15.30;99.90;;;;;;5056722;28;20075;-81
2023/06/17 02:47:27;;;;;;;36.20;25.17;;;15.20;99.90;;;;;;5036176;28;20535;-82
2023/06/17 02:49:52;;;;;;;31.52;24.13;;;15.30;99.90;;;;;;5037753;28;20049;-81
2023/06/17 02:52:18;;;;;;;30.58;24.85;;;15.30;99.90;;;;;;5052004;28;20519;-81
2023/06/17 02:54:44;;;;;;;37.47;26.02;;;15.20;99.90;;;;;;5048357;28;20033;-82
2023/06/17 02:57:10;;;;;;;34.60;26.42;;;15.10;99.90;;;;;;5052289;28;20033;-82
2023/06/17 02:59:37;;;;;;;32.25;24.13;;;15.10;99.90;;;;;;5048436;28;20602;-82
2023/06/17 03:02:03;;;;;;;36.20;25.65;;;15.10;99.90;;;;;;5036979;28;20583;-81
2023/06/17 03:04:34;;;;;;;35.38;25.15;;;15.20;99.90;;;;;;5038525;28;20122;-82
2023/06/17 03:07:02;;;;;;;33.10;25.10;;;15.20;99.90;;;;;;5036859;28;20254;-81
2023/06/17 03:09:28;;;;;;;33.00;24.58;;;15.20;99.90;;;;;;5038305;28;20048;-81
2023/06/17 03:11:54;;;;;;;37.60;25.25;;;15.20;99.90;;;;;;5038379;28;20048;-82
2023/06/17 03:14:20;;;;;;;35.03;25.38;;;15.20;99.90;;;;;;5041671;28;20036;-82
2023/06/17 03:16:46;;;;;;;33.58;25.55;;;15.20;99.90;;;;;;5037267;28;20032;-81
2023/06/17 03:19:14;;;;;;;34.13;25.60;;;15.20;99.90;;;;;;5040447;28;20040;-81
2023/06/17 03:21:42;;;;;;;35.03;25.92;;;15.20;99.90;;;;;;5040809;28;20403;-82
2023/06/17 03:24:08;;;;;;;33.13;22.67;;;15.20;99.90;;;;;;5030907;28;20306;-81
2023/06/17 03:26:34;;;;;;;35.92;24.35;;;15.20;99.90;;;;;;5034637;28;20496;-82
2023/06/17 03:29:01;;;;;;;36.78;24.73;;;15.20;99.90;;;;;;5037504;28;20041;-81
2023/06/17 03:31:28;;;;;;;38.90;25.95;;;15.30;99.90;;;;;;5033999;28;20618;-81
2023/06/17 03:33:54;;;;;;;32.15;23.88;;;15.30;99.90;;;;;;5047938;28;20119;-81
2023/06/17 03:36:28;;;;;;;35.30;25.40;;;15.30;99.90;;;;;;5068230;28;20440;-82
2023/06/17 03:38:54;;;;;;;37.08;25.63;;;15.30;99.90;;;;;;5036674;28;20060;-81
2023/06/17 03:41:20;;;;;;;35.80;25.27;;;15.20;99.90;;;;;;5058456;28;20049;-81
2023/06/17 03:43:46;;;;;;;34.78;24.55;;;15.20;99.90;;;;;;5054827;28;20044;-81
2023/06/17 03:46:14;;;;;;;33.45;23.55;;;15.20;99.90;;;;;;5042983;28;20491;-82
2023/06/17 03:48:40;;;;;;;40.28;25.15;;;15.20;99.90;;;;;;5051819;28;20045;-81
2023/06/17 03:51:06;;;;;;;33.55;24.33;;;15.10;99.90;;;;;;5045041;28;20612;-81
2023/06/17 03:53:32;;;;;;;34.08;24.67;;;15.10;99.90;;;;;;5043180;28;20049;-81
2023/06/17 03:55:57;;;;;;;31.58;22.63;;;15.20;99.90;;;;;;5057729;28;20121;-82
2023/06/17 03:58:24;;;;;;;32.08;22.33;;;15.20;99.90;;;;;;5042715;28;20192;-82
2023/06/17 04:00:51;;;;;;;32.92;24.13;;;15.20;99.90;;;;;;5041308;28;20032;-82
2023/06/17 04:03:25;;;;;;;31.98;23.02;;;15.20;99.90;;;;;;5055736;28;20227;-81
2023/06/17 04:05:52;;;;;;;27.33;21.88;;;15.20;99.90;;;;;;5045529;28;20162;-82
2023/06/17 04:08:18;;;;;;;33.90;22.85;;;15.20;99.90;;;;;;5053026;28;20581;-81
2023/06/17 04:10:47;;;;;;;32.75;22.48;;;15.20;99.90;;;;;;5051018;28;20090;-81
2023/06/17 04:13:12;;;;;;;31.80;22.52;;;15.20;99.90;;;;;;5049388;28;20107;-81
2023/06/17 04:15:38;;;;;;;30.95;24.17;;;15.20;99.90;;;;;;5043624;28;20041;-81
2023/06/17 04:18:04;;;;;;;31.83;23.13;;;15.10;99.90;;;;;;5052612;28;20094;-81
2023/06/17 04:20:29;;;;;;;30.65;22.35;;;15.20;99.90;;;;;;5056686;28;20090;-82
2023/06/17 04:22:55;;;;;;;35.55;24.20;;;15.30;99.90;;;;;;5052035;28;20254;-81
2023/06/17 04:25:22;;;;;;;31.77;23.60;;;15.20;99.90;;;;;;5042142;28;20044;-82
2023/06/17 04:27:48;;;;;;;29.45;22.85;;;15.30;99.90;;;;;;5043553;28;20072;-81
2023/06/17 04:30:15;;;;;;;32.33;22.48;;;15.30;99.90;;;;;;5049116;28;20048;-82
2023/06/17 04:32:42;;;;;;;32.25;22.77;;;15.50;99.90;;;;;;5040885;28;20082;-82
2023/06/17 04:35:09;;;;;;;31.58;22.30;;;15.50;99.90;;;;;;5048542;28;20048;-82
2023/06/17 04:37:36;;;;;;;33.40;22.63;;;15.50;99.90;;;;;;5053384;28;20459;-81
2023/06/17 04:40:06;;;;;;;31.40;21.23;;;15.50;99.90;;;;;;5050630;28;20510;-81
2023/06/17 04:42:36;;;;;;;29.77;21.85;;;15.40;99.90;;;;;;5039926;28;20060;-81
2023/06/17 04:45:02;;;;;;;29.15;22.00;;;15.50;99.90;;;;;;5049853;28;20045;-82
2023/06/17 04:47:29;;;;;;;30.30;22.13;;;15.50;99.90;;;;;;5051495;28;20472;-81
2023/06/17 04:49:56;;;;;;;32.88;21.15;;;15.50;99.90;;;;;;5052876;28;20049;-81
2023/06/17 04:52:24;;;;;;;34.40;22.58;;;15.50;99.90;;;;;;5037343;28;20502;-81
2023/06/17 04:54:50;;;;;;;28.17;21.95;;;15.30;99.90;;;;;;5044711;28;20024;-81
2023/06/17 04:57:16;;;;;;;34.00;23.30;;;15.30;99.90;;;;;;5039105;28;20040;-81
2023/06/17 04:59:42;;;;;;;35.58;23.10;;;15.40;99.90;;;;;;5059363;28;20040;-81
2023/06/17 05:02:08;;;;;;;33.10;23.25;;;15.40;99.90;;;;;;5043187;28;20072;-81
2023/06/17 05:04:34;;;;;;;32.17;23.30;;;15.40;99.90;;;;;;5043874;28;20515;-81
2023/06/17 05:07:02;;;;;;;30.33;22.80;;;15.50;99.90;;;;;;5055150;28;20468;-81
2023/06/17 05:09:28;;;;;;;31.60;21.40;;;15.50;99.90;;;;;;5040434;28;20040;-81
2023/06/17 05:11:53;;;;;;;29.00;22.02;;;15.40;99.90;;;;;;5054149;28;20045;-81
2023/06/17 05:14:19;;;;;;;31.80;21.80;;;15.40;99.90;;;;;;5039832;28;20548;-82
2023/06/17 05:16:45;;;;;;;33.85;21.40;;;15.40;99.90;;;;;;5056394;28;20045;-81
2023/06/17 05:19:10;;;;;;;27.83;21.25;;;15.40;99.90;;;;;;5041725;28;20414;-81
2023/06/17 05:21:36;;;;;;;26.10;20.73;;;15.50;99.90;;;;;;5055627;28;20397;-82
2023/06/17 05:24:02;;;;;;;31.13;21.52;;;15.50;99.90;;;;;;5053641;28;20043;-81
2023/06/17 05:26:28;;;;;;;29.35;20.38;;;15.50;99.90;;;;;;5052257;28;20036;-81
2023/06/17 05:28:54;;;;;;;27.88;19.63;;;15.40;99.90;;;;;;5034353;28;20483;-81
2023/06/17 05:31:20;;;;;;;31.00;19.52;;;15.50;99.90;;;;;;5055456;28;20514;-81
2023/06/17 05:33:45;;;;;;;30.33;19.38;;;15.40;99.90;;;;;;5038905;28;20419;-81
2023/06/17 05:36:11;;;;;;;26.20;19.75;;;15.40;99.90;;;;;;5052311;28;20076;-81
2023/06/17 05:38:37;;;;;;;29.02;19.30;;;15.50;99.90;;;;;;5060135;28;20515;-81
2023/06/17 05:41:02;;;;;;;23.63;18.75;;;15.50;99.90;;;;;;5039321;28;20056;-81
2023/06/17 05:43:28;;;;;;;26.10;19.35;;;15.60;99.90;;;;;;5052972;28;20041;-81
2023/06/17 05:45:54;;;;;;;22.70;18.45;;;15.50;99.90;;;;;;5069283;28;20041;-81
2023/06/17 05:48:22;;;;;;;27.38;20.45;;;15.60;99.90;;;;;;5040014;28;20047;-81
2023/06/17 05:50:48;;;;;;;26.13;20.20;;;15.60;99.90;;;;;;5040970;28;21071;-81
2023/06/17 05:53:15;;;;;;;25.20;18.60;;;15.50;99.90;;;;;;5040299;28;20159;-81
2023/06/17 05:55:40;;;;;;;26.70;19.25;;;15.50;99.90;;;;;;5048696;28;20342;-82
2023/06/17 05:58:06;;;;;;;27.13;19.00;;;15.60;99.90;;;;;;5048537;28;20263;-81
2023/06/17 06:00:32;;;;;;;26.77;18.95;;;15.60;99.90;;;;;;5033670;28;20060;-81
2023/06/17 06:02:57;;;;;;;25.58;17.58;;;15.70;99.90;;;;;;5058269;28;20040;-81
2023/06/17 06:05:23;;;;;;;25.40;18.10;;;15.70;99.90;;;;;;5042905;28;20205;-82
2023/06/17 06:07:48;;;;;;;25.02;18.88;;;15.80;99.90;;;;;;5037006;28;20032;-82
2023/06/17 06:10:15;;;;;;;25.33;18.95;;;15.80;99.90;;;;;;5042099;28;20094;-81
2023/06/17 06:12:40;;;;;;;27.02;19.40;;;15.70;99.90;;;;;;5044846;28;20063;-81
2023/06/17 06:15:07;;;;;;;25.80;19.40;;;15.70;99.90;;;;;;5039793;28;20412;-81
2023/06/17 06:17:33;;;;;;;26.48;19.15;;;15.80;99.90;;;;;;5054044;28;20067;-81
2023/06/17 06:19:59;;;;;;;30.55;20.38;;;15.90;99.90;;;;;;5032814;28;20051;-81
2023/06/17 06:22:24;;;;;;;26.98;18.55;;;15.90;99.90;;;;;;5050805;28;20059;-81
2023/06/17 06:24:50;;;;;;;28.00;20.70;;;15.80;99.90;;;;;;5050588;28;20411;-81
2023/06/17 06:27:19;;;;;;;28.55;19.60;;;15.80;99.90;;;;;;5037875;28;20090;-81
2023/06/17 06:29:47;;;;;;;28.92;21.90;;;15.90;99.90;;;;;;5042015;28;20403;-82
2023/06/17 06:32:12;;;;;;;28.85;20.92;;;15.80;99.90;;;;;;5038688;28;20116;-81
2023/06/17 06:34:38;;;;;;;27.45;21.27;;;15.90;99.90;;;;;;5052027;28;20158;-81
2023/06/17 06:37:04;;;;;;;30.60;21.65;;;16.00;99.90;;;;;;5031474;28;20411;-81
2023/06/17 06:39:30;;;;;;;28.50;20.00;;;16.00;99.90;;;;;;5050214;28;20040;-81
2023/06/17 06:41:58;;;;;;;27.35;20.88;;;16.00;99.90;;;;;;5042528;28;20044;-82
2023/06/17 06:44:24;;;;;;;31.33;19.48;;;15.90;99.90;;;;;;5051761;28;20481;-81
2023/06/17 06:46:50;;;;;;;32.97;21.10;;;16.00;99.90;;;;;;5052915;28;20605;-81
2023/06/17 06:49:15;;;;;;;27.90;19.80;;;16.10;99.90;;;;;;5043803;28;20657;-82
2023/06/17 06:51:41;;;;;;;26.90;20.65;;;16.20;99.90;;;;;;5041030;28;20444;-81
2023/06/17 06:54:06;;;;;;;26.85;19.73;;;16.20;99.90;;;;;;5041508;28;20067;-81
2023/06/17 06:56:32;;;;;;;25.33;19.35;;;16.40;99.90;;;;;;5051093;28;20090;-82
2023/06/17 06:58:58;;;;;;;26.20;18.75;;;16.60;99.90;;;;;;5056034;28;20119;-81
2023/06/17 07:01:26;;;;;;;26.88;19.33;;;16.70;99.90;;;;;;5042203;28;20032;-81
2023/06/17 07:03:52;;;;;;;33.55;20.73;;;16.70;99.90;;;;;;5043165;28;20362;-81
2023/06/17 07:06:21;;;;;;;30.08;22.23;;;16.60;99.90;;;;;;5060022;28;20344;-81
2023/06/17 07:08:47;;;;;;;29.23;22.25;;;16.70;99.90;;;;;;5041872;28;20032;-81
2023/06/17 07:11:12;;;;;;;24.02;19.40;;;16.80;99.90;;;;;;5039783;28;20112;-81
2023/06/17 07:13:38;;;;;;;26.63;19.50;;;16.80;99.90;;;;;;5056168;28;20035;-81
2023/06/17 07:16:04;;;;;;;30.02;20.73;;;16.80;99.90;;;;;;5059478;28;20036;-81
2023/06/17 07:18:30;;;;;;;25.60;18.85;;;16.80;99.90;;;;;;5059000;28;20179;-82
2023/06/17 07:20:56;;;;;;;24.67;18.17;;;17.10;99.90;;;;;;5042094;28;20397;-82
2023/06/17 07:23:24;;;;;;;26.63;17.77;;;17.10;99.90;;;;;;5044276;28;20052;-81
2023/06/17 07:25:49;;;;;;;20.65;16.10;;;17.20;99.90;;;;;;5052484;28;20151;-81
2023/06/17 07:28:16;;;;;;;22.05;16.30;;;17.40;99.90;;;;;;5051044;28;20058;-81
2023/06/17 07:30:41;;;;;;;22.15;16.50;;;17.20;99.90;;;;;;5052168;28;20060;-82
2023/06/17 07:33:07;;;;;;;22.48;17.33;;;17.30;99.90;;;;;;5055409;28;20048;-81
2023/06/17 07:35:33;;;;;;;22.15;16.02;;;17.50;99.90;;;;;;5040438;28;20052;-81
2023/06/17 07:37:59;;;;;;;20.10;15.95;;;17.60;99.90;;;;;;5056705;28;20066;-82
2023/06/17 07:40:24;;;;;;;23.15;16.17;;;17.90;99.90;;;;;;5038789;28;20411;-81
2023/06/17 07:42:50;;;;;;;21.98;16.77;;;18.40;99.90;;;;;;5049293;28;20510;-81
2023/06/17 07:45:16;;;;;;;21.52;16.42;;;18.20;99.90;;;;;;5043797;28;20052;-81
2023/06/17 07:47:41;;;;;;;28.35;15.35;;;18.10;99.90;;;;;;5037851;28;20072;-81
2023/06/17 07:50:08;;;;;;;19.67;15.20;;;18.30;99.90;;;;;;5047406;28;20478;-81
2023/06/17 07:52:35;;;;;;;18.95;15.23;;;18.20;99.90;;;;;;5052183;28;20067;-81
2023/06/17 07:55:02;;;;;;;22.50;15.90;;;18.40;99.90;;;;;;5038545;28;20105;-81
2023/06/17 07:57:28;;;;;;;22.05;15.52;;;18.20;99.90;;;;;;5046204;28;20321;-81
2023/06/17 07:59:54;;;;;;;20.25;13.75;;;19.10;99.90;;;;;;5050045;28;20344;-82
2023/06/17 08:02:21;;;;;;;20.30;14.98;;;19.60;99.90;;;;;;5057869;28;20036;-81
2023/06/17 08:04:48;;;;;;;20.50;14.75;;;19.20;99.90;;;;;;5039378;28;20041;-81
2023/06/17 08:07:13;;;;;;;24.42;16.27;;;19.30;99.90;;;;;;5032781;28;20169;-81
2023/06/17 08:09:39;;;;;;;23.67;16.00;;;18.90;99.90;;;;;;5035523;28;20526;-81
2023/06/17 08:12:05;;;;;;;21.75;14.75;;;18.90;99.90;;;;;;5053162;28;20253;-81
2023/06/17 08:14:31;;;;;;;19.38;15.10;;;19.20;99.90;;;;;;5046882;28;20066;-81
2023/06/17 08:16:57;;;;;;;19.08;15.25;;;19.10;99.90;;;;;;5044119;28;20036;-81
2023/06/17 08:19:23;;;;;;;18.98;14.40;;;19.60;99.90;;;;;;5042632;28;20154;-81
2023/06/17 08:21:49;;;;;;;20.13;14.50;;;19.60;99.90;;;;;;5057289;28;20074;-81
2023/06/17 08:24:24;;;;;;;21.42;15.50;;;19.70;99.90;;;;;;5053179;28;20055;-81
2023/06/17 08:26:51;;;;;;;21.95;15.40;;;19.60;99.90;;;;;;5041464;28;20033;-81
2023/06/17 08:29:17;;;;;;;18.85;14.75;;;19.50;99.90;;;;;;5040982;28;20068;-82
2023/06/17 08:31:44;;;;;;;20.92;15.20;;;19.60;99.90;;;;;;5055828;28;20082;-82
2023/06/17 08:34:10;;;;;;;23.08;15.30;;;19.40;99.90;;;;;;5048223;28;20046;-82
2023/06/17 08:36:38;;;;;;;20.10;13.77;;;19.50;99.90;;;;;;5040930;28;20078;-81
2023/06/17 08:39:04;;;;;;;18.33;14.02;;;19.70;99.90;;;;;;5040354;28;20767;-81
2023/06/17 08:41:33;;;;;;;17.90;14.98;;;19.90;99.90;;;;;;5047284;28;20044;-81
2023/06/17 08:44:00;;;;;;;20.85;16.02;;;19.80;99.90;;;;;;5035998;28;20056;-81
2023/06/17 08:46:27;;;;;;;20.25;13.80;;;19.90;99.90;;;;;;5046936;28;20036;-82
2023/06/17 08:48:53;;;;;;;16.98;13.18;;;19.80;99.90;;;;;;5049493;28;20087;-82
2023/06/17 08:51:19;;;;;;;19.33;14.60;;;20.10;99.90;;;;;;5046412;28;20515;-81
2023/06/17 08:53:47;;;;;;;17.00;14.45;;;20.20;99.90;;;;;;5040683;28;20054;-82
2023/06/17 08:56:13;;;;;;;15.38;13.25;;;20.10;99.90;;;;;;5036603;28;20078;-81
2023/06/17 08:58:39;;;;;;;17.50;13.52;;;20.10;99.90;;;;;;5037950;28;20040;-81
2023/06/17 09:01:05;;;;;;;19.15;13.27;;;20.60;99.90;;;;;;5065196;28;20117;-81
2023/06/17 09:03:36;;;;;;;16.80;13.48;;;21.00;99.90;;;;;;5041356;28;20037;-81
2023/06/17 09:06:03;;;;;;;21.17;14.35;;;21.20;99.90;;;;;;5053405;28;20044;-81
2023/06/17 09:08:32;;;;;;;17.35;13.77;;;20.60;99.90;;;;;;5040755;28;20047;-81
2023/06/17 09:11:05;;;;;;;19.70;13.48;;;20.70;99.90;;;;;;5060509;28;20036;-81
2023/06/17 09:13:31;;;;;;;16.27;12.70;;;21.10;99.90;;;;;;5044371;28;20032;-82
2023/06/17 09:15:56;;;;;;;21.15;13.88;;;21.00;99.90;;;;;;5057527;28;20044;-82
2023/06/17 09:18:22;;;;;;;22.65;14.07;;;21.20;99.90;;;;;;5059662;28;20589;-81
2023/06/17 09:20:55;;;;;;;22.63;13.50;;;20.80;99.90;;;;;;5062438;28;20068;-81
2023/06/17 09:23:23;;;;;;;16.02;13.52;;;21.20;99.90;;;;;;5040471;28;20044;-81
2023/06/17 09:26:02;;;;;;;20.65;13.20;;;21.00;99.90;;;;;;5058227;28;20498;-81
2023/06/17 09:28:27;;;;;;;17.02;12.02;;;21.50;99.90;;;;;;5037341;28;20036;-81
2023/06/17 09:30:56;;;;;;;16.88;11.95;;;21.70;99.90;;;;;;5045923;28;20050;-81
2023/06/17 09:33:25;;;;;;;17.10;11.43;;;21.80;99.90;;;;;;5044450;28;20032;-81
2023/06/17 09:36:01;;;;;;;14.65;10.32;;;21.30;99.90;;;;;;5055439;28;20064;-81
2023/06/17 09:38:30;;;;;;;15.48;10.80;;;21.40;99.90;;;;;;5035472;28;20526;-81
2023/06/17 09:40:57;;;;;;;14.77;9.98;;;21.50;99.90;;;;;;5046117;28;20040;-81
2023/06/17 09:43:28;;;;;;;13.70;10.07;;;21.80;99.90;;;;;;5038625;28;20048;-81
2023/06/17 09:46:04;;;;;;;14.13;10.60;;;22.10;99.90;;;;;;5062856;28;20135;-81
2023/06/17 09:48:31;;;;;;;12.45;9.98;;;22.00;99.90;;;;;;5041735;28;20126;-81
2023/06/17 09:50:58;;;;;;;16.17;10.50;;;22.10;99.90;;;;;;5061078;28;20044;-81
2023/06/17 09:53:29;;;;;;;13.73;10.55;;;22.20;99.90;;;;;;5045664;28;20037;-81
2023/06/17 09:55:56;;;;;;;12.40;10.23;;;22.40;99.90;;;;;;5041565;28;20036;-81
2023/06/17 09:58:26;;;;;;;16.67;9.73;;;22.40;99.90;;;;;;5052106;28;20044;-81
2023/06/17 10:00:52;;;;;;;11.68;9.50;;;22.40;99.90;;;;;;5061100;28;20144;-81
2023/06/17 10:03:19;;;;;;;13.63;10.20;;;22.60;99.90;;;;;;5042189;28;20050;-81
2023/06/17 10:06:01;;;;;;;13.57;10.23;;;22.30;99.90;;;;;;5045848;28;20472;-81
2023/06/17 10:08:28;;;;;;;14.75;9.80;;;22.50;99.90;;;;;;5036873;28;20040;-81
2023/06/17 10:10:57;;;;;;;12.93;9.60;;;22.70;99.90;;;;;;5061085;28;20521;-81
2023/06/17 10:13:28;;;;;;;12.82;9.23;;;22.50;99.90;;;;;;5043446;28;20574;-82
2023/06/17 10:15:55;;;;;;;13.75;9.55;;;22.90;99.90;;;;;;5061048;28;20035;-81
2023/06/17 10:18:22;;;;;;;12.70;9.05;;;23.00;99.90;;;;;;5045136;28;20493;-81
2023/06/17 10:20:50;;;;;;;15.25;9.50;;;23.20;99.90;;;;;;5053427;28;20044;-81
2023/06/17 10:23:21;;;;;;;12.90;9.70;;;23.40;99.90;;;;;;5043935;28;20036;-81
2023/06/17 10:25:47;;;;;;;13.15;8.68;;;23.30;99.90;;;;;;5044047;28;20044;-81
2023/06/17 10:28:16;;;;;;;14.30;9.20;;;23.40;99.90;;;;;;5055456;28;20039;-81
2023/06/17 10:30:48;;;;;;;13.18;9.00;;;23.50;99.90;;;;;;5038812;28;20567;-81
2023/06/17 10:33:13;;;;;;;12.05;9.27;;;23.20;99.90;;;;;;5062664;28;20089;-81
2023/06/17 10:35:43;;;;;;;14.35;9.20;;;23.30;99.90;;;;;;5055451;28;20040;-81
2023/06/17 10:38:26;;;;;;;11.00;8.38;;;23.10;99.90;;;;;;5059394;28;20044;-81
2023/06/17 10:40:51;;;;;;;16.67;9.45;;;23.40;99.90;;;;;;5061540;28;20071;-81
2023/06/17 10:43:19;;;;;;;10.45;8.90;;;23.90;99.90;;;;;;5043371;28;20765;-81
2023/06/17 10:45:57;;;;;;;11.43;8.68;;;23.80;35.70;;;;;;5063927;28;20047;-81
2023/06/17 10:48:33;;;;;;;10.18;8.70;;;24.20;99.90;;;;;;5060189;28;20533;-81
2023/06/17 10:51:07;;;;;;;12.18;8.40;;;24.30;99.90;;;;;;5041276;28;20040;-81
2023/06/17 10:53:37;;;;;;;13.57;8.68;;;24.50;99.90;;;;;;5038946;28;20040;-81
2023/06/17 10:56:09;;;;;;;10.80;8.60;;;24.00;1.00;;;;;;5045489;28;20126;-80
2023/06/17 10:58:37;;;;;;;11.43;8.43;;;24.20;99.90;;;;;;5061444;28;20032;-82
2023/06/17 11:01:10;;;;;;;14.82;8.90;;;24.30;99.90;;;;;;5043144;28;20172;-82
2023/06/17 11:03:36;;;;;;;12.55;9.00;;;24.70;99.90;;;;;;5040683;28;20060;-85
2023/06/17 11:06:06;;;;;;;14.35;9.10;;;24.90;1.00;;;;;;5045209;28;20123;-79
2023/06/17 11:08:34;;;;;;;12.05;8.63;;;24.60;99.90;;;;;;5058499;28;20622;-79
2023/06/17 11:11:19;;;;;;;11.50;7.82;;;24.50;99.90;;;;;;5032870;28;20036;-79
2023/06/17 11:13:50;;;;;;;11.43;8.27;;;24.40;38.60;;;;;;5061388;28;20415;-79
2023/06/17 11:16:16;;;;;;;10.98;8.77;;;24.50;99.90;;;;;;5060236;28;20041;-78
2023/06/17 11:18:44;;;;;;;10.93;8.18;;;25.00;99.90;;;;;;5041834;28;20038;-78
2023/06/17 11:21:10;;;;;;;11.90;8.20;;;25.10;1.00;;;;;;5045059;28;20043;-79
2023/06/17 11:23:38;;;;;;;11.38;8.20;;;24.90;99.90;;;;;;5044135;28;20041;-79
2023/06/17 11:26:05;;;;;;;9.80;8.15;;;24.90;1.00;;;;;;5044975;28;20036;-79
2023/06/17 11:28:31;;;;;;;10.60;8.80;;;25.40;99.90;;;;;;5053498;28;20515;-79
2023/06/17 11:30:59;;;;;;;12.73;8.68;;;25.30;99.90;;;;;;5048341;28;20044;-79
2023/06/17 11:33:28;;;;;;;10.23;8.30;;;25.30;99.90;;;;;;5052762;28;20131;-78
2023/06/17 11:35:54;;;;;;;13.07;8.95;;;25.40;99.90;;;;;;5040002;28;20043;-79
2023/06/17 11:38:21;;;;;;;10.90;8.45;;;25.50;4.30;;;;;;5044385;28;20046;-79
2023/06/17 11:40:51;;;;;;;12.65;8.65;;;25.50;1.00;;;;;;5050744;28;20059;-79
2023/06/17 11:43:20;;;;;;;13.38;8.32;;;25.40;2.40;;;;;;5052358;28;20044;-78
2023/06/17 11:45:46;;;;;;;15.02;8.95;;;25.90;99.90;;;;;;5055535;28;20040;-79
2023/06/17 11:48:12;;;;;;;10.20;7.63;;;25.70;99.90;;;;;;5044933;28;20036;-79
2023/06/17 11:50:38;;;;;;;11.30;8.40;;;26.60;99.90;;;;;;5043855;28;20051;-78
2023/06/17 11:53:03;;;;;;;10.95;7.55;;;26.50;99.90;;;;;;5053564;28;20419;-79
2023/06/17 11:55:36;;;;;;;12.27;8.38;;;26.50;99.90;;;;;;5044184;28;20056;-79
2023/06/17 11:58:04;;;;;;;11.32;8.15;;;25.70;99.90;;;;;;5057588;28;20039;-79
2023/06/17 12:00:36;;;;;;;9.10;7.47;;;26.00;99.90;;;;;;5043383;28;20047;-79
2023/06/17 12:03:05;;;;;;;10.02;7.60;;;26.00;99.90;;;;;;5044402;28;20098;-78
2023/06/17 12:05:31;;;;;;;9.80;7.53;;;26.10;1.00;;;;;;5061935;28;20031;-80
2023/06/17 12:08:01;;;;;;;12.38;8.23;;;26.40;1.00;;;;;;5058311;28;20048;-80
2023/06/17 12:10:27;;;;;;;10.35;7.53;;;25.90;99.90;;;;;;5046898;28;20395;-80
2023/06/17 12:12:56;;;;;;;10.88;7.80;;;26.10;99.90;;;;;;5055721;28;20131;-79
2023/06/17 12:15:29;;;;;;;11.63;7.32;;;25.80;99.90;;;;;;5060371;28;20032;-80
2023/06/17 12:17:56;;;;;;;12.30;7.82;;;26.20;99.90;;;;;;5063788;28;20608;-80
2023/06/17 12:20:22;;;;;;;10.77;7.57;;;26.20;95.00;;;;;;5057743;28;20372;-80
2023/06/17 12:22:50;;;;;;;9.98;7.47;;;25.90;99.90;;;;;;5047282;28;20054;-80
2023/06/17 12:25:16;;;;;;;9.18;7.20;;;26.10;99.90;;;;;;5061967;28;20514;-81
2023/06/17 12:27:45;;;;;;;12.65;7.68;;;26.00;99.90;;;;;;5046104;28;20181;-81
2023/06/17 12:30:12;;;;;;;10.05;7.13;;;26.30;99.90;;;;;;5061051;28;20578;-81